Norman Wells Airport
CYVQ : now visible

Airfield :











YOU CAN JOIN US ON...

 
LOGIN :

Register | Disclaimer

   EN    FR    IT 

 









Legend :    VFR   Marginal VFR   IFR   Intensive IFR   Very Intensive IFR
Visi :
Ceiling :
>= 8 km
>= 3000ft
5 to 8 km
1000 to 3000 ft
1500m to 5 km
500 to 1000 ft
800 to 1500m
200 to 500 ft
< 800m
< 200 ft
Symbols :   Thunderstorms  Fog  Heavy snow  Heavy precipitations  Wind > 20 kt






- Airport Elevation : 238 ft
- IATA code : YVQ


CYVQ - Norman Wells

CURRENT METAR :
  • 280900Z 27006KT 20SM -SN OVC091 M25/M28 A3009 RMK AC8 SLP202

EXPIRED METARs :
  • 280800Z 29009KT 15SM -SN OVC097 M24/M28 A3009 RMK AC8 SLP203
  • 280700Z 28005KT 15SM -SN OVC100 M24/M27 A3009 RMK AC8 SLP200

TAF TAF CYVQ
Valid from the 28 at 06:00 until the 28 at 18:00 UTC


280540Z 2806/2818 28007KT P6SM -SN SCT030 BKN060
TEMPO 2806/2818 4SM -SN BKN030 OVC060 RMK NXT FCST BY 281200Z



MET'MAP, your aeronautical weather chart ! - Copyright ORBIFLY December 2007 - Disclaimer

ORBIFLY MET'MAP TEAM :

Programming & Development : Alexandra Zaïnal
Concept & original design : Baudouin d'Aumeries
Assistance for programming : Marc-Olivier Méhu
Technical & hardware support : Manuel Goepfert

Contact : metmap@orbifly.com




SOURCES & CREDITS :

   NOAA       Earth
Advisory